createdAt,value
2017-11-19T13:24:28.511Z,1008.97
2017-11-19T13:25:28.135Z,1009.00
2017-11-19T13:26:28.072Z,1008.98
2017-11-19T13:27:28.051Z,1008.96
2017-11-19T13:28:28.032Z,1008.95
2017-11-19T13:29:28.037Z,1008.93
2017-11-19T13:30:28.022Z,1008.96
2017-11-19T13:31:27.971Z,1009.02
2017-11-19T13:32:27.947Z,1009.03
2017-11-19T13:33:27.928Z,1009.07
2017-11-19T13:34:35.545Z,1008.97
2017-11-19T13:35:27.887Z,1009.06
2017-11-19T13:36:27.860Z,1009.13
2017-11-19T13:37:27.879Z,1009.11
2017-11-19T13:38:27.819Z,1009.11
2017-11-19T13:39:27.793Z,1009.11
2017-11-19T13:40:27.782Z,1009.12
2017-11-19T13:41:27.754Z,1009.13
2017-11-19T13:42:27.771Z,1009.17
2017-11-19T13:43:27.711Z,1009.15
2017-11-19T13:44:27.688Z,1009.19
2017-11-19T13:45:27.667Z,1009.18
2017-11-19T13:46:27.655Z,1009.15
2017-11-19T13:47:27.663Z,1009.14
2017-11-19T13:48:27.605Z,1009.12
2017-11-19T13:49:35.592Z,1009.09
2017-11-19T13:50:27.565Z,1009.17
2017-11-19T13:51:27.566Z,1009.15
2017-11-19T13:52:27.522Z,1009.13
2017-11-19T13:53:27.521Z,1009.12
2017-11-19T13:54:27.483Z,1009.18
2017-11-19T13:55:27.497Z,1009.17
2017-11-19T13:56:27.438Z,1009.19
2017-11-19T13:57:27.416Z,1009.17
2017-11-19T13:58:27.398Z,1009.19
2017-11-19T13:59:27.377Z,1009.18
2017-11-19T14:00:27.396Z,1009.16
2017-11-19T14:01:27.345Z,1009.17
2017-11-19T14:02:27.315Z,1009.17
2017-11-19T14:03:27.334Z,1009.18
2017-11-19T14:04:27.272Z,1009.19
2017-11-19T14:05:27.365Z,1009.25
2017-11-19T14:06:27.233Z,1009.26
2017-11-19T14:07:27.236Z,1009.21
2017-11-19T14:08:27.189Z,1009.15
2017-11-19T14:09:27.168Z,1009.21
2017-11-19T14:10:27.187Z,1009.24
2017-11-19T14:11:27.159Z,1009.28
2017-11-19T14:12:27.107Z,1009.29
2017-11-19T14:13:27.084Z,1009.23
2017-11-19T14:14:27.060Z,1009.26
2017-11-19T14:15:27.080Z,1009.23
2017-11-19T14:16:27.024Z,1009.28
2017-11-19T14:17:27.002Z,1009.26
2017-11-19T14:18:27.007Z,1009.28
2017-11-19T14:19:27.003Z,1009.26
2017-11-19T14:20:26.936Z,1009.32
2017-11-19T14:21:26.914Z,1009.33
2017-11-19T14:22:26.893Z,1009.23
2017-11-19T14:23:26.884Z,1009.31
2017-11-19T14:24:26.887Z,1009.30
2017-11-19T14:25:26.832Z,1009.29
2017-11-19T14:26:26.809Z,1009.30
2017-11-19T14:27:26.789Z,1009.30
2017-11-19T14:28:26.807Z,1009.32
2017-11-19T14:29:26.741Z,1009.28
2017-11-19T14:30:26.760Z,1009.32
2017-11-19T14:31:26.739Z,1009.30
2017-11-19T14:32:26.680Z,1009.35
2017-11-19T14:33:26.661Z,1009.34
2017-11-19T14:34:26.639Z,1009.34
2017-11-19T14:35:26.750Z,1009.34
2017-11-19T14:36:26.604Z,1009.38
2017-11-19T14:37:26.575Z,1009.34
2017-11-19T14:38:26.555Z,1009.37
2017-11-19T14:39:26.533Z,1009.35
2017-11-19T14:40:34.133Z,1009.28
2017-11-19T14:41:34.174Z,1009.29
2017-11-19T14:42:26.466Z,1009.33
2017-11-19T14:43:26.451Z,1009.36
2017-11-19T14:44:26.424Z,1009.38
2017-11-19T14:45:26.402Z,1009.36
2017-11-19T14:46:26.431Z,1009.42
2017-11-19T14:47:26.375Z,1009.42
2017-11-19T14:48:26.339Z,1009.35
2017-11-19T14:49:26.310Z,1009.39
2017-11-19T14:50:26.291Z,1009.46
2017-11-19T14:51:26.317Z,1009.40
2017-11-19T14:52:26.265Z,1009.42
2017-11-19T14:53:26.224Z,1009.48
2017-11-19T14:54:26.206Z,1009.42
2017-11-19T14:55:26.184Z,1009.46
2017-11-19T14:56:26.198Z,1009.46
2017-11-19T14:57:26.138Z,1009.45
2017-11-19T14:58:26.168Z,1009.46
2017-11-19T14:59:26.101Z,1009.43
2017-11-19T15:00:26.077Z,1009.43
2017-11-19T15:01:26.047Z,1009.41
2017-11-19T15:02:26.029Z,1009.48
2017-11-19T15:03:26.152Z,1009.48
2017-11-19T15:04:25.987Z,1009.52
2017-11-19T15:05:25.968Z,1009.54
2017-11-19T15:06:25.949Z,1009.56
2017-11-19T15:07:25.921Z,1009.55
2017-11-19T15:08:25.940Z,1009.53
2017-11-19T15:09:25.877Z,1009.52
2017-11-19T15:10:25.858Z,1009.52
2017-11-19T15:11:25.871Z,1009.52
2017-11-19T15:12:25.817Z,1009.52
2017-11-19T15:13:33.712Z,1009.46
2017-11-19T15:14:25.780Z,1009.50
2017-11-19T15:15:25.745Z,1009.44
2017-11-19T15:16:25.728Z,1009.47
2017-11-19T15:17:25.703Z,1009.53
2017-11-19T15:18:25.690Z,1009.52
2017-11-19T15:19:25.698Z,1009.53
2017-11-19T15:20:25.682Z,1009.56
2017-11-19T15:21:25.628Z,1009.61
2017-11-19T15:22:25.598Z,1009.61
2017-11-19T15:23:25.571Z,1009.60
2017-11-19T15:24:25.551Z,1009.55
2017-11-19T15:25:25.563Z,1009.58
2017-11-19T15:26:25.511Z,1009.59
2017-11-19T15:27:25.524Z,1009.60
2017-11-19T15:28:25.460Z,1009.60
2017-11-19T15:29:25.442Z,1009.57
2017-11-19T15:30:25.419Z,1009.62
2017-11-19T15:31:25.434Z,1009.63
2017-11-19T15:32:25.374Z,1009.59
2017-11-19T15:33:25.352Z,1009.60
2017-11-19T15:34:25.375Z,1009.64
2017-11-19T15:35:25.318Z,1009.61
2017-11-19T15:36:25.283Z,1009.67
2017-11-19T15:37:25.269Z,1009.65
2017-11-19T15:38:25.251Z,1009.66
2017-11-19T15:39:25.261Z,1009.63
2017-11-19T15:40:25.201Z,1009.65
2017-11-19T15:41:25.172Z,1009.63
2017-11-19T15:42:25.151Z,1009.65
2017-11-19T15:43:25.130Z,1009.60
2017-11-19T15:44:25.150Z,1009.66
2017-11-19T15:45:25.110Z,1009.64
2017-11-19T15:46:25.104Z,1009.66
2017-11-19T15:47:25.045Z,1009.67
2017-11-19T15:48:25.024Z,1009.67
2017-11-19T15:49:24.995Z,1009.71
2017-11-19T15:50:25.017Z,1009.77
2017-11-19T15:51:24.956Z,1009.69
2017-11-19T15:52:24.935Z,1009.71
2017-11-19T15:53:24.906Z,1009.71
2017-11-19T15:54:24.888Z,1009.75
2017-11-19T15:55:24.902Z,1009.75
2017-11-19T15:56:24.894Z,1009.79
2017-11-19T15:57:24.818Z,1009.78
2017-11-19T15:58:24.800Z,1009.86
2017-11-19T15:59:24.777Z,1009.87
2017-11-19T16:00:24.752Z,1009.90
2017-11-19T16:01:24.776Z,1009.92
2017-11-19T16:02:24.712Z,1009.92
2017-11-19T16:03:24.728Z,1009.94
2017-11-19T16:04:34.196Z,1009.86
2017-11-19T16:05:34.237Z,1009.82
2017-11-19T16:06:24.619Z,1009.93
2017-11-19T16:07:24.599Z,1009.97
2017-11-19T16:08:24.616Z,1009.99
2017-11-19T16:09:24.551Z,1010.00
2017-11-19T16:10:24.526Z,1010.02
2017-11-19T16:11:24.505Z,1010.07
2017-11-19T16:12:24.491Z,1010.05
2017-11-19T16:13:24.499Z,1010.08
2017-11-19T16:14:24.465Z,1010.10
2017-11-19T16:15:24.411Z,1010.09
2017-11-19T16:16:25.231Z,1010.06
2017-11-19T16:17:24.369Z,1010.08
2017-11-19T16:18:24.348Z,1010.11
2017-11-19T16:19:24.363Z,1010.11
2017-11-19T16:20:24.303Z,1010.12
2017-11-19T16:21:24.336Z,1010.14
2017-11-19T16:22:24.259Z,1010.14
2017-11-19T16:23:24.239Z,1010.16
2017-11-19T16:24:24.217Z,1010.20
2017-11-19T16:25:24.191Z,1010.15
2017-11-19T16:26:24.223Z,1010.15
2017-11-19T16:27:24.143Z,1010.17
2017-11-19T16:28:24.125Z,1010.18
2017-11-19T16:29:24.098Z,1010.20
2017-11-19T16:30:24.077Z,1010.19
2017-11-19T16:31:24.096Z,1010.24
2017-11-19T16:32:24.034Z,1010.26
2017-11-19T16:33:24.046Z,1010.25
2017-11-19T16:34:23.987Z,1010.33
2017-11-19T16:35:23.969Z,1010.32
2017-11-19T16:36:23.990Z,1010.35
2017-11-19T16:37:23.917Z,1010.33
2017-11-19T16:38:23.895Z,1010.36
2017-11-19T16:39:23.874Z,1010.40
2017-11-19T16:40:23.849Z,1010.37
2017-11-19T16:41:23.863Z,1010.43
2017-11-19T16:42:23.806Z,1010.44
2017-11-19T16:43:23.832Z,1010.44
2017-11-19T16:44:23.760Z,1010.42
2017-11-19T16:45:23.753Z,1010.46
2017-11-19T16:46:23.716Z,1010.49
2017-11-19T16:47:23.693Z,1010.46
2017-11-19T16:48:23.730Z,1010.46
2017-11-19T16:49:23.647Z,1010.49
2017-11-19T16:50:23.630Z,1010.49
2017-11-19T16:51:23.605Z,1010.45
2017-11-19T16:52:23.584Z,1010.52
2017-11-19T16:53:23.593Z,1010.52
2017-11-19T16:54:23.534Z,1010.52
2017-11-19T16:55:31.320Z,1010.46
2017-11-19T16:56:33.308Z,1010.46
2017-11-19T16:57:23.473Z,1010.47
2017-11-19T16:58:23.444Z,1010.54
2017-11-19T16:59:23.422Z,1010.55
2017-11-19T17:00:23.401Z,1010.52
2017-11-19T17:01:23.417Z,1010.56
2017-11-19T17:02:23.410Z,1010.56
2017-11-19T17:03:23.339Z,1010.57
2017-11-19T17:04:23.317Z,1010.64
2017-11-19T17:05:23.283Z,1010.57
2017-11-19T17:06:23.265Z,1010.59
2017-11-19T17:07:23.275Z,1010.66
2017-11-19T17:08:23.212Z,1010.64
2017-11-19T17:09:23.227Z,1010.59
2017-11-19T17:10:23.169Z,1010.63
2017-11-19T17:11:23.147Z,1010.67
2017-11-19T17:12:23.125Z,1010.68
2017-11-19T17:13:23.111Z,1010.68
2017-11-19T17:14:23.122Z,1010.68
2017-11-19T17:15:23.051Z,1010.67
2017-11-19T17:16:23.031Z,1010.61
2017-11-19T17:17:23.011Z,1010.71
2017-11-19T17:18:22.983Z,1010.69
2017-11-19T17:19:23.011Z,1010.67
2017-11-19T17:20:22.942Z,1010.69
2017-11-19T17:21:22.923Z,1010.69
2017-11-19T17:22:22.901Z,1010.74
2017-11-19T17:23:22.872Z,1010.74
2017-11-19T17:24:22.892Z,1010.70
2017-11-19T17:25:22.826Z,1010.73
2017-11-19T17:26:22.825Z,1010.76
2017-11-19T17:27:22.778Z,1010.76
2017-11-19T17:28:22.763Z,1010.77
2017-11-19T17:29:22.781Z,1010.82
2017-11-19T17:30:22.715Z,1010.85
2017-11-19T17:31:22.689Z,1010.82
2017-11-19T17:32:22.670Z,1010.83
2017-11-19T17:33:22.643Z,1010.83
2017-11-19T17:34:22.660Z,1010.82
2017-11-19T17:35:22.599Z,1010.85
2017-11-19T17:36:22.574Z,1010.93
2017-11-19T17:37:22.559Z,1010.97
2017-11-19T17:38:22.532Z,1010.92
2017-11-19T17:39:22.543Z,1010.94
2017-11-19T17:40:22.484Z,1010.92
2017-11-19T17:41:22.519Z,1010.93
2017-11-19T17:42:22.447Z,1010.93
2017-11-19T17:43:22.416Z,1010.95
2017-11-19T17:44:22.393Z,1010.93
2017-11-19T17:45:22.374Z,1010.95
2017-11-19T17:46:30.388Z,1010.91
2017-11-19T17:47:31.878Z,1010.88
2017-11-19T17:48:22.303Z,1010.93
2017-11-19T17:49:22.278Z,1010.94
2017-11-19T17:50:22.307Z,1010.95
2017-11-19T17:51:22.234Z,1011.03
2017-11-19T17:52:22.216Z,1010.95
2017-11-19T17:53:22.184Z,1010.99
2017-11-19T17:54:22.166Z,1010.98
2017-11-19T17:55:22.174Z,1010.98
2017-11-19T17:56:22.115Z,1011.00
2017-11-19T17:57:22.097Z,1010.98
2017-11-19T17:58:22.113Z,1011.04
2017-11-19T17:59:22.049Z,1011.04
2017-11-19T18:00:22.023Z,1011.03
2017-11-19T18:01:22.000Z,1011.06
2017-11-19T18:02:21.981Z,1011.06
2017-11-19T18:03:22.007Z,1011.09
2017-11-19T18:04:21.941Z,1011.07
2017-11-19T18:05:21.918Z,1011.09
2017-11-19T18:06:21.895Z,1011.09
2017-11-19T18:07:21.865Z,1011.11
2017-11-19T18:08:21.893Z,1011.15
2017-11-19T18:09:21.818Z,1011.15
2017-11-19T18:10:21.793Z,1011.18
2017-11-19T18:11:21.780Z,1011.22
2017-11-19T18:12:21.749Z,1011.25
2017-11-19T18:13:21.764Z,1011.22
2017-11-19T18:14:21.708Z,1011.23
2017-11-19T18:15:21.678Z,1011.32
2017-11-19T18:16:21.703Z,1011.31
2017-11-19T18:17:21.637Z,1011.28
2017-11-19T18:18:21.624Z,1011.32
2017-11-19T18:19:21.590Z,1011.35
2017-11-19T18:20:21.567Z,1011.35
2017-11-19T18:21:21.576Z,1011.35
2017-11-19T18:22:21.519Z,1011.29
2017-11-19T18:23:21.496Z,1011.34
2017-11-19T18:24:21.514Z,1011.33
2017-11-19T18:25:21.493Z,1011.34
2017-11-19T18:26:21.433Z,1011.33
2017-11-19T18:27:21.418Z,1011.33
2017-11-19T18:28:21.380Z,1011.38
2017-11-19T18:29:21.419Z,1011.41
2017-11-19T18:30:21.340Z,1011.36
2017-11-19T18:31:21.311Z,1011.39
2017-11-19T18:32:21.290Z,1011.35
2017-11-19T18:33:21.266Z,1011.40
2017-11-19T18:34:21.286Z,1011.39
2017-11-19T18:35:21.226Z,1011.40
2017-11-19T18:36:21.196Z,1011.35
2017-11-19T18:37:31.922Z,1011.36
2017-11-19T18:38:31.444Z,1011.33
2017-11-19T18:39:21.175Z,1011.37
2017-11-19T18:40:21.108Z,1011.37
2017-11-19T18:41:21.104Z,1011.34
2017-11-19T18:42:21.064Z,1011.38
2017-11-19T18:43:21.038Z,1011.39
2017-11-19T18:44:21.048Z,1011.39
2017-11-19T18:45:20.988Z,1011.42
2017-11-19T18:46:20.973Z,1011.43
2017-11-19T18:47:20.981Z,1011.48
2017-11-19T18:48:20.923Z,1011.45
2017-11-19T18:49:20.900Z,1011.48
2017-11-19T18:50:20.883Z,1011.47
2017-11-19T18:51:20.900Z,1011.54
2017-11-19T18:52:20.829Z,1011.47
2017-11-19T18:53:20.806Z,1011.49
2017-11-19T18:54:20.783Z,1011.49
2017-11-19T18:55:20.760Z,1011.56
2017-11-19T18:56:20.795Z,1011.53
2017-11-19T18:57:20.711Z,1011.55
2017-11-19T18:58:20.689Z,1011.52
2017-11-19T18:59:20.672Z,1011.54
2017-11-19T19:00:20.647Z,1011.54
2017-11-19T19:01:20.684Z,1011.55
2017-11-19T19:02:20.598Z,1011.55
2017-11-19T19:03:20.573Z,1011.63
2017-11-19T19:04:20.554Z,1011.59
2017-11-19T19:05:20.527Z,1011.59
2017-11-19T19:06:20.542Z,1011.63
2017-11-19T19:07:20.535Z,1011.61
2017-11-19T19:08:20.463Z,1011.61
2017-11-19T19:09:20.445Z,1011.69
2017-11-19T19:10:20.416Z,1011.68
2017-11-19T19:11:20.393Z,1011.67
2017-11-19T19:12:20.419Z,1011.65
2017-11-19T19:13:20.345Z,1011.65
2017-11-19T19:14:20.322Z,1011.67
2017-11-19T19:15:20.316Z,1011.70
2017-11-19T19:16:20.288Z,1011.72
2017-11-19T19:17:20.288Z,1011.75
2017-11-19T19:18:20.233Z,1011.71
2017-11-19T19:19:20.209Z,1011.75
2017-11-19T19:20:20.198Z,1011.81
2017-11-19T19:21:20.211Z,1011.82
2017-11-19T19:22:20.154Z,1011.80
2017-11-19T19:23:20.117Z,1011.79
2017-11-19T19:24:20.094Z,1011.80
2017-11-19T19:25:20.070Z,1011.79
2017-11-19T19:26:20.091Z,1011.75
2017-11-19T19:27:20.064Z,1011.83
2017-11-19T19:28:20.040Z,1011.79
2017-11-19T19:29:20.009Z,1011.82
2017-11-19T19:30:19.955Z,1011.84
2017-11-19T19:31:19.948Z,1011.88
2017-11-19T19:32:19.960Z,1011.91
2017-11-19T19:33:19.989Z,1011.89
2017-11-19T19:34:19.889Z,1011.88
2017-11-19T19:35:19.856Z,1011.89
2017-11-19T19:36:19.839Z,1011.88
2017-11-19T19:37:19.808Z,1011.95
2017-11-19T19:38:19.809Z,1012.00
2017-11-19T19:39:19.759Z,1011.99
2017-11-19T19:40:19.764Z,1012.00
2017-11-19T19:41:19.710Z,1012.01
2017-11-19T19:42:19.685Z,1012.05
2017-11-19T19:43:19.690Z,1012.05
2017-11-19T19:44:19.637Z,1012.11
2017-11-19T19:45:19.650Z,1012.07
2017-11-19T19:46:19.585Z,1012.16
2017-11-19T19:47:19.560Z,1012.14
2017-11-19T19:48:19.546Z,1012.15
2017-11-19T19:49:19.514Z,1012.17
2017-11-19T19:50:19.628Z,1012.18
2017-11-19T19:51:19.468Z,1012.22
2017-11-19T19:52:19.451Z,1012.19
2017-11-19T19:53:19.425Z,1012.19
2017-11-19T19:54:19.405Z,1012.16
2017-11-19T19:55:19.411Z,1012.16
2017-11-19T19:56:19.360Z,1012.17
2017-11-19T19:57:19.329Z,1012.18
2017-11-19T19:58:19.310Z,1012.24
2017-11-19T19:59:19.321Z,1012.29
2017-11-19T20:00:19.264Z,1012.27
2017-11-19T20:01:19.239Z,1012.31
2017-11-19T20:02:19.262Z,1012.33
2017-11-19T20:03:19.193Z,1012.34
2017-11-19T20:04:19.171Z,1012.30
2017-11-19T20:05:19.149Z,1012.31
2017-11-19T20:06:19.121Z,1012.28
2017-11-19T20:07:19.144Z,1012.32
2017-11-19T20:08:19.079Z,1012.35
2017-11-19T20:09:19.056Z,1012.37
2017-11-19T20:10:19.032Z,1012.39
2017-11-19T20:11:19.011Z,1012.44
2017-11-19T20:12:19.024Z,1012.44
2017-11-19T20:13:18.960Z,1012.52
2017-11-19T20:14:18.935Z,1012.54
2017-11-19T20:15:18.925Z,1012.51
2017-11-19T20:16:18.893Z,1012.51
2017-11-19T20:17:18.910Z,1012.53
2017-11-19T20:18:18.849Z,1012.54
2017-11-19T20:19:18.823Z,1012.54
2017-11-19T20:20:18.802Z,1012.56
2017-11-19T20:21:18.783Z,1012.54
2017-11-19T20:22:18.788Z,1012.56
2017-11-19T20:23:18.780Z,1012.60
2017-11-19T20:24:18.743Z,1012.64
2017-11-19T20:25:18.692Z,1012.62
2017-11-19T20:26:18.699Z,1012.64
2017-11-19T20:27:18.640Z,1012.66
2017-11-19T20:28:18.613Z,1012.71
2017-11-19T20:29:18.632Z,1012.70
2017-11-19T20:30:18.605Z,1012.71
2017-11-19T20:31:18.543Z,1012.74
2017-11-19T20:32:18.521Z,1012.73
2017-11-19T20:33:18.499Z,1012.78
2017-11-19T20:34:18.510Z,1012.73
2017-11-19T20:35:18.496Z,1012.73
2017-11-19T20:36:18.430Z,1012.78
2017-11-19T20:37:18.406Z,1012.76
2017-11-19T20:38:18.384Z,1012.73
2017-11-19T20:39:18.392Z,1012.75
2017-11-19T20:40:18.375Z,1012.72
2017-11-19T20:41:18.313Z,1012.75
2017-11-19T20:42:18.333Z,1012.75
2017-11-19T20:43:18.274Z,1012.78
2017-11-19T20:44:18.284Z,1012.81
2017-11-19T20:45:18.295Z,1012.80
2017-11-19T20:46:18.199Z,1012.76
2017-11-19T20:47:18.183Z,1012.78
2017-11-19T20:48:18.158Z,1012.74
2017-11-19T20:49:18.167Z,1012.79
2017-11-19T20:50:18.112Z,1012.80
2017-11-19T20:51:18.089Z,1012.79
2017-11-19T20:52:18.068Z,1012.80
2017-11-19T20:53:18.038Z,1012.79
2017-11-19T20:54:18.147Z,1012.78
2017-11-19T20:55:17.992Z,1012.82
2017-11-19T20:56:17.970Z,1012.84
2017-11-19T20:57:17.951Z,1012.78
2017-11-19T20:58:17.923Z,1012.78
2017-11-19T20:59:17.973Z,1012.80
2017-11-19T21:00:17.941Z,1012.82
2017-11-19T21:01:17.905Z,1012.81
2017-11-19T21:02:17.850Z,1012.83
2017-11-19T21:03:17.825Z,1012.80
2017-11-19T21:04:17.804Z,1012.80
2017-11-19T21:05:17.821Z,1012.84
2017-11-19T21:06:17.762Z,1012.79
2017-11-19T21:07:17.733Z,1012.83
2017-11-19T21:08:17.713Z,1012.85
2017-11-19T21:09:17.695Z,1012.89
2017-11-19T21:10:17.725Z,1012.90
2017-11-19T21:11:17.639Z,1012.90
2017-11-19T21:12:17.622Z,1012.89
2017-11-19T21:13:17.596Z,1012.94
2017-11-19T21:14:17.574Z,1012.93
2017-11-19T21:15:17.595Z,1012.93
2017-11-19T21:16:17.565Z,1012.94
2017-11-19T21:17:17.492Z,1012.96
2017-11-19T21:18:17.467Z,1012.98
2017-11-19T21:19:17.441Z,1013.00
2017-11-19T21:20:17.414Z,1012.99
2017-11-19T21:21:17.438Z,1012.99
2017-11-19T21:22:17.384Z,1012.99
2017-11-19T21:23:17.373Z,1012.94
2017-11-19T21:24:17.342Z,1012.97
2017-11-19T21:25:17.307Z,1012.95
2017-11-19T21:26:17.325Z,1012.99
2017-11-19T21:27:17.251Z,1013.00
2017-11-19T21:28:18.927Z,1012.94
2017-11-19T21:29:17.212Z,1012.94
2017-11-19T21:30:17.221Z,1012.95
2017-11-19T21:31:17.163Z,1012.93
2017-11-19T21:32:17.137Z,1013.01
2017-11-19T21:33:17.113Z,1013.03
2017-11-19T21:34:17.125Z,1013.06
2017-11-19T21:35:17.067Z,1013.07
2017-11-19T21:36:17.046Z,1013.07
2017-11-19T21:37:17.027Z,1013.14
2017-11-19T21:38:17.040Z,1013.12
2017-11-19T21:39:16.980Z,1013.10
2017-11-19T21:40:16.959Z,1013.05
2017-11-19T21:41:16.944Z,1013.09
2017-11-19T21:42:16.943Z,1013.13
2017-11-19T21:43:16.880Z,1013.11
2017-11-19T21:44:16.862Z,1013.11
2017-11-19T21:45:16.837Z,1013.09
2017-11-19T21:46:16.848Z,1013.08
2017-11-19T21:47:16.806Z,1013.12
2017-11-19T21:48:16.802Z,1013.14
2017-11-19T21:49:16.738Z,1013.15
2017-11-19T21:50:16.754Z,1013.13
2017-11-19T21:51:16.701Z,1013.14
2017-11-19T21:52:16.677Z,1013.12
2017-11-19T21:53:16.648Z,1013.12
2017-11-19T21:54:16.663Z,1013.10
2017-11-19T21:55:16.603Z,1013.06
2017-11-19T21:56:16.581Z,1013.09
2017-11-19T21:57:16.560Z,1013.07
2017-11-19T21:58:16.537Z,1013.06
2017-11-19T21:59:16.543Z,1013.06
2017-11-19T22:00:16.488Z,1013.02
2017-11-19T22:01:16.460Z,1013.02
2017-11-19T22:02:25.991Z,1012.96
2017-11-19T22:03:16.459Z,1013.02
2017-11-19T22:04:16.393Z,1013.06
2017-11-19T22:05:16.368Z,1013.04
2017-11-19T22:06:16.347Z,1013.03
2017-11-19T22:07:16.335Z,1013.01
2017-11-19T22:08:16.353Z,1013.04
2017-11-19T22:09:16.320Z,1013.06
2017-11-19T22:10:16.254Z,1013.06
2017-11-19T22:11:16.232Z,1013.09
2017-11-19T22:12:16.202Z,1013.11
2017-11-19T22:13:16.228Z,1013.07
2017-11-19T22:14:16.163Z,1013.10
2017-11-19T22:15:16.137Z,1013.11
2017-11-19T22:16:16.117Z,1013.15
2017-11-19T22:17:16.084Z,1013.14
2017-11-19T22:18:16.109Z,1013.17
2017-11-19T22:19:16.040Z,1013.17
2017-11-19T22:20:16.015Z,1013.17
2017-11-19T22:21:16.005Z,1013.20
2017-11-19T22:22:15.986Z,1013.18
2017-11-19T22:23:15.989Z,1013.22
2017-11-19T22:24:15.925Z,1013.21
2017-11-19T22:25:15.899Z,1013.24
2017-11-19T22:26:15.878Z,1013.26
2017-11-19T22:27:15.866Z,1013.26
2017-11-19T22:28:15.873Z,1013.28
2017-11-19T22:29:15.804Z,1013.27
2017-11-19T22:30:15.784Z,1013.31
2017-11-19T22:31:15.768Z,1013.27
2017-11-19T22:32:15.775Z,1013.26
2017-11-19T22:33:15.753Z,1013.27
2017-11-19T22:34:15.691Z,1013.25
2017-11-19T22:35:15.674Z,1013.20
2017-11-19T22:36:15.655Z,1013.22
2017-11-19T22:37:15.623Z,1013.16
2017-11-19T22:38:15.635Z,1013.12
2017-11-19T22:39:15.574Z,1013.07
2017-11-19T22:40:15.554Z,1013.07
2017-11-19T22:41:15.572Z,1013.02
2017-11-19T22:42:25.533Z,1012.94
2017-11-19T22:43:15.491Z,1013.03
2017-11-19T22:44:15.457Z,1013.03
2017-11-19T22:45:15.434Z,1013.10
2017-11-19T22:46:15.447Z,1013.12
2017-11-19T22:47:15.388Z,1013.12
2017-11-19T22:48:15.368Z,1013.12
2017-11-19T22:49:15.341Z,1013.10
2017-11-19T22:50:15.326Z,1013.10
2017-11-19T22:51:15.334Z,1013.09
2017-11-19T22:52:15.275Z,1013.09
2017-11-19T22:53:15.299Z,1013.08
2017-11-19T22:54:15.258Z,1013.11
2017-11-19T22:55:15.202Z,1013.11
2017-11-19T22:56:15.217Z,1013.14
2017-11-19T22:57:15.159Z,1013.15
2017-11-19T22:58:15.168Z,1013.10
2017-11-19T22:59:15.149Z,1013.11
2017-11-19T23:00:15.089Z,1013.06
2017-11-19T23:01:15.064Z,1013.08
2017-11-19T23:02:15.043Z,1013.09
2017-11-19T23:03:15.079Z,1013.10
2017-11-19T23:04:14.995Z,1013.12
2017-11-19T23:05:14.975Z,1013.12
2017-11-19T23:06:14.946Z,1013.14
2017-11-19T23:07:14.921Z,1013.15
2017-11-19T23:08:14.947Z,1013.17
2017-11-19T23:09:14.874Z,1013.21
2017-11-19T23:10:14.852Z,1013.14
2017-11-19T23:11:14.835Z,1013.18
2017-11-19T23:12:14.830Z,1013.13
2017-11-19T23:13:14.855Z,1013.18
2017-11-19T23:14:14.798Z,1013.13
2017-11-19T23:15:14.780Z,1013.16
2017-11-19T23:16:14.711Z,1013.12
2017-11-19T23:17:14.694Z,1013.16
2017-11-19T23:18:14.667Z,1013.15
2017-11-19T23:19:14.640Z,1013.19
2017-11-19T23:20:14.675Z,1013.20
2017-11-19T23:21:14.598Z,1013.22
2017-11-19T23:22:14.575Z,1013.22
2017-11-19T23:23:14.551Z,1013.22
2017-11-19T23:24:14.534Z,1013.21
2017-11-19T23:25:14.552Z,1013.18
2017-11-19T23:26:14.487Z,1013.16
2017-11-19T23:27:14.458Z,1013.18
2017-11-19T23:28:14.434Z,1013.18
2017-11-19T23:29:14.421Z,1013.19
2017-11-19T23:30:14.449Z,1013.21
2017-11-19T23:31:14.389Z,1013.16
2017-11-19T23:32:14.402Z,1013.18
2017-11-19T23:33:14.347Z,1013.22
2017-11-19T23:34:14.316Z,1013.23
2017-11-19T23:35:14.292Z,1013.24
2017-11-19T23:39:58.127Z,1013.19
2017-11-19T23:40:58.057Z,1013.18
2017-11-19T23:41:58.070Z,1013.19
2017-11-19T23:42:58.006Z,1013.22
2017-11-19T23:43:58.021Z,1013.20
2017-11-19T23:44:57.963Z,1013.18
2017-11-19T23:45:57.942Z,1013.16
2017-11-19T23:46:57.919Z,1013.15
2017-11-19T23:48:08.665Z,1013.10
2017-11-19T23:53:29.023Z,1013.14
2017-11-19T23:54:28.948Z,1013.16
2017-11-19T23:55:28.976Z,1013.16
2017-11-19T23:56:28.900Z,1013.17
2017-11-19T23:57:28.883Z,1013.15
2017-11-19T23:58:28.856Z,1013.17
2017-11-19T23:59:28.825Z,1013.15
